sensor_id;sensor_type;location;lat;lon;timestamp;pressure;altitude;pressure_sealevel;temperature;humidity
43878;BME280;29815;48.184;11.268;2023-02-17T07:23:55;96340.91;;;10.06;89.61
43878;BME280;29815;48.184;11.268;2023-02-17T07:26:25;96338.31;;;10.11;87.48
43878;BME280;29815;48.184;11.268;2023-02-17T07:28:55;96338.91;;;10.18;85.97
43878;BME280;29815;48.184;11.268;2023-02-17T07:31:24;96343.28;;;10.20;87.92
43878;BME280;29815;48.184;11.268;2023-02-17T07:33:54;96330.78;;;10.13;89.16
43878;BME280;29815;48.184;11.268;2023-02-17T07:36:23;96347.72;;;10.14;84.49
43878;BME280;29815;48.184;11.268;2023-02-17T07:38:53;96348.53;;;10.14;85.32
43878;BME280;29815;48.184;11.268;2023-02-17T07:41:25;96343.16;;;10.14;87.12
43878;BME280;29815;48.184;11.268;2023-02-17T07:43:56;96340.44;;;10.09;89.03
43878;BME280;29815;48.184;11.268;2023-02-17T07:46:26;96353.69;;;10.16;88.37
43878;BME280;29815;48.184;11.268;2023-02-17T07:48:56;96352.88;;;10.15;90.34
43878;BME280;29815;48.184;11.268;2023-02-17T07:51:26;96362.59;;;10.00;89.91
43878;BME280;29815;48.184;11.268;2023-02-17T07:53:56;96349.22;;;10.05;92.20
43878;BME280;29815;48.184;11.268;2023-02-17T07:56:27;96364.97;;;9.96;90.34
43878;BME280;29815;48.184;11.268;2023-02-17T07:58:57;96349.88;;;9.95;92.79
43878;BME280;29815;48.184;11.268;2023-02-17T08:01:26;96353.31;;;9.91;92.87
43878;BME280;29815;48.184;11.268;2023-02-17T08:03:56;96352.34;;;9.97;94.70
43878;BME280;29815;48.184;11.268;2023-02-17T08:06:26;96349.00;;;9.90;95.35
43878;BME280;29815;48.184;11.268;2023-02-17T08:08:56;96355.50;;;9.94;95.27
43878;BME280;29815;48.184;11.268;2023-02-17T08:11:50;96356.66;;;9.98;94.87
43878;BME280;29815;48.184;11.268;2023-02-17T08:14:37;96356.56;;;9.93;94.60
43878;BME280;29815;48.184;11.268;2023-02-17T08:17:07;96355.84;;;9.97;99.58
43878;BME280;29815;48.184;11.268;2023-02-17T08:19:36;96364.72;;;9.98;99.04
43878;BME280;29815;48.184;11.268;2023-02-17T08:22:16;96361.47;;;9.96;96.25
43878;BME280;29815;48.184;11.268;2023-02-17T08:24:46;96353.63;;;9.94;95.76
43878;BME280;29815;48.184;11.268;2023-02-17T08:27:18;96370.34;;;9.96;92.42
43878;BME280;29815;48.184;11.268;2023-02-17T08:29:48;96349.63;;;9.97;93.86
43878;BME280;29815;48.184;11.268;2023-02-17T08:32:18;96357.53;;;10.03;92.99
43878;BME280;29815;48.184;11.268;2023-02-17T08:34:48;96367.56;;;10.08;92.02
43878;BME280;29815;48.184;11.268;2023-02-17T08:37:17;96367.38;;;10.14;89.19
43878;BME280;29815;48.184;11.268;2023-02-17T08:39:47;96375.06;;;10.23;92.81
43878;BME280;29815;48.184;11.268;2023-02-17T08:42:18;96366.44;;;10.21;88.29
43878;BME280;29815;48.184;11.268;2023-02-17T08:44:47;96376.19;;;10.27;92.46
43878;BME280;29815;48.184;11.268;2023-02-17T08:47:17;96392.09;;;10.28;90.01
43878;BME280;29815;48.184;11.268;2023-02-17T08:49:46;96385.66;;;10.29;89.63
43878;BME280;29815;48.184;11.268;2023-02-17T08:52:16;96389.16;;;10.30;96.32
43878;BME280;29815;48.184;11.268;2023-02-17T08:54:45;96388.19;;;10.19;100.00
43878;BME280;29815;48.184;11.268;2023-02-17T08:57:19;96392.75;;;10.02;100.00
43878;BME280;29815;48.184;11.268;2023-02-17T08:59:49;96383.13;;;9.89;100.00
43878;BME280;29815;48.184;11.268;2023-02-17T09:02:19;96402.03;;;9.77;100.00
43878;BME280;29815;48.184;11.268;2023-02-17T09:04:49;96398.38;;;9.83;100.00
43878;BME280;29815;48.184;11.268;2023-02-17T09:07:20;96388.50;;;9.89;100.00
43878;BME280;29815;48.184;11.268;2023-02-17T09:09:53;96387.78;;;9.94;100.00
43878;BME280;29815;48.184;11.268;2023-02-17T09:12:24;96395.84;;;9.94;100.00
43878;BME280;29815;48.184;11.268;2023-02-17T09:14:53;96387.63;;;10.00;100.00
43878;BME280;29815;48.184;11.268;2023-02-17T09:17:23;96383.38;;;10.04;100.00
43878;BME280;29815;48.184;11.268;2023-02-17T09:19:52;96376.94;;;10.05;100.00
43878;BME280;29815;48.184;11.268;2023-02-17T09:22:22;96387.69;;;10.05;100.00
43878;BME280;29815;48.184;11.268;2023-02-17T09:24:59;96376.50;;;10.13;100.00
43878;BME280;29815;48.184;11.268;2023-02-17T09:27:31;96390.53;;;10.15;100.00
43878;BME280;29815;48.184;11.268;2023-02-17T09:30:00;96379.47;;;10.29;100.00
43878;BME280;29815;48.184;11.268;2023-02-17T09:32:30;96388.19;;;10.36;100.00
43878;BME280;29815;48.184;11.268;2023-02-17T09:35:00;96404.66;;;10.39;100.00
43878;BME280;29815;48.184;11.268;2023-02-17T09:37:32;96385.38;;;10.47;100.00
43878;BME280;29815;48.184;11.268;2023-02-17T09:40:04;96364.88;;;10.63;100.00
43878;BME280;29815;48.184;11.268;2023-02-17T09:42:38;96388.88;;;10.70;100.00
43878;BME280;29815;48.184;11.268;2023-02-17T09:45:21;96379.94;;;10.86;100.00
43878;BME280;29815;48.184;11.268;2023-02-17T09:48:02;96389.00;;;11.02;99.30
43878;BME280;29815;48.184;11.268;2023-02-17T09:50:40;96395.34;;;11.12;94.29
43878;BME280;29815;48.184;11.268;2023-02-17T09:53:23;96395.44;;;11.23;95.45
43878;BME280;29815;48.184;11.268;2023-02-17T09:56:03;96391.66;;;11.24;93.14
43878;BME280;29815;48.184;11.268;2023-02-17T09:58:40;96398.94;;;11.23;91.27
43878;BME280;29815;48.184;11.268;2023-02-17T10:01:18;96385.47;;;11.23;89.95
43878;BME280;29815;48.184;11.268;2023-02-17T10:03:53;96398.88;;;11.40;87.86
43878;BME280;29815;48.184;11.268;2023-02-17T10:06:28;96390.53;;;11.41;89.47
43878;BME280;29815;48.184;11.268;2023-02-17T10:09:05;96391.41;;;11.52;89.72
43878;BME280;29815;48.184;11.268;2023-02-17T10:11:44;96389.59;;;11.58;87.89
43878;BME280;29815;48.184;11.268;2023-02-17T10:14:23;96395.66;;;11.70;89.32
43878;BME280;29815;48.184;11.268;2023-02-17T10:17:01;96389.34;;;11.86;89.20
43878;BME280;29815;48.184;11.268;2023-02-17T10:19:36;96384.09;;;12.06;87.64
43878;BME280;29815;48.184;11.268;2023-02-17T10:22:14;96393.66;;;12.19;85.95
43878;BME280;29815;48.184;11.268;2023-02-17T10:24:46;96388.53;;;12.23;82.54
43878;BME280;29815;48.184;11.268;2023-02-17T10:27:31;96373.75;;;12.35;81.96
43878;BME280;29815;48.184;11.268;2023-02-17T10:30:25;96376.97;;;12.27;81.53
43878;BME280;29815;48.184;11.268;2023-02-17T10:33:01;96379.13;;;12.25;80.89
43878;BME280;29815;48.184;11.268;2023-02-17T10:35:49;96375.88;;;12.23;78.37
43878;BME280;29815;48.184;11.268;2023-02-17T10:38:35;96370.50;;;12.28;79.40
43878;BME280;29815;48.184;11.268;2023-02-17T10:41:16;96366.25;;;12.42;78.30
43878;BME280;29815;48.184;11.268;2023-02-17T10:43:50;96364.22;;;12.70;77.97
43878;BME280;29815;48.184;11.268;2023-02-17T10:46:27;96388.09;;;12.93;79.63
43878;BME280;29815;48.184;11.268;2023-02-17T10:48:58;96360.84;;;13.00;76.23
43878;BME280;29815;48.184;11.268;2023-02-17T10:51:29;96370.88;;;13.09;75.15
43878;BME280;29815;48.184;11.268;2023-02-17T10:54:05;96378.19;;;13.14;74.31
43878;BME280;29815;48.184;11.268;2023-02-17T10:56:43;96357.97;;;13.21;76.80
43878;BME280;29815;48.184;11.268;2023-02-17T10:59:21;96371.97;;;13.13;73.88
43878;BME280;29815;48.184;11.268;2023-02-17T11:01:58;96366.00;;;13.06;74.77
43878;BME280;29815;48.184;11.268;2023-02-17T11:04:41;96366.28;;;13.15;74.29
43878;BME280;29815;48.184;11.268;2023-02-17T11:07:14;96362.50;;;13.06;74.76
43878;BME280;29815;48.184;11.268;2023-02-17T11:09:48;96376.84;;;13.11;74.93
43878;BME280;29815;48.184;11.268;2023-02-17T11:12:23;96367.09;;;13.10;76.28
43878;BME280;29815;48.184;11.268;2023-02-17T11:14:55;96370.38;;;13.12;75.29
43878;BME280;29815;48.184;11.268;2023-02-17T11:17:30;96365.53;;;13.19;74.54
43878;BME280;29815;48.184;11.268;2023-02-17T11:20:08;96360.16;;;13.35;75.10
43878;BME280;29815;48.184;11.268;2023-02-17T11:23:22;96373.16;;;13.38;74.83
43878;BME280;29815;48.184;11.268;2023-02-17T11:26:00;96354.75;;;13.30;75.63
43878;BME280;29815;48.184;11.268;2023-02-17T11:28:32;96365.75;;;13.13;75.35
43878;BME280;29815;48.184;11.268;2023-02-17T11:31:02;96345.22;;;13.12;76.00
43878;BME280;29815;48.184;11.268;2023-02-17T11:33:36;96345.47;;;13.05;75.05
43878;BME280;29815;48.184;11.268;2023-02-17T11:36:19;96345.44;;;13.00;75.49
43878;BME280;29815;48.184;11.268;2023-02-17T11:38:51;96328.94;;;12.97;77.49
43878;BME280;29815;48.184;11.268;2023-02-17T11:41:21;96336.25;;;13.01;78.19
43878;BME280;29815;48.184;11.268;2023-02-17T11:43:53;96338.69;;;13.03;75.55
43878;BME280;29815;48.184;11.268;2023-02-17T11:46:32;96332.16;;;12.88;75.21
43878;BME280;29815;48.184;11.268;2023-02-17T11:49:48;96331.66;;;12.97;76.96
43878;BME280;29815;48.184;11.268;2023-02-17T11:52:39;96334.84;;;12.88;76.44
43878;BME280;29815;48.184;11.268;2023-02-17T11:55:24;96312.97;;;12.80;76.95
43878;BME280;29815;48.184;11.268;2023-02-17T11:58:13;96300.84;;;12.93;78.33
43878;BME280;29815;48.184;11.268;2023-02-17T12:00:59;96292.50;;;13.04;77.36
43878;BME280;29815;48.184;11.268;2023-02-17T12:04:00;96290.34;;;13.11;77.45
43878;BME280;29815;48.184;11.268;2023-02-17T12:07:12;96287.38;;;13.08;76.71
43878;BME280;29815;48.184;11.268;2023-02-17T12:09:59;96283.84;;;13.02;77.51
43878;BME280;29815;48.184;11.268;2023-02-17T12:12:48;96300.84;;;12.98;78.51
43878;BME280;29815;48.184;11.268;2023-02-17T12:15:46;96297.88;;;12.99;79.69
43878;BME280;29815;48.184;11.268;2023-02-17T12:18:40;96307.91;;;13.04;79.75
43878;BME280;29815;48.184;11.268;2023-02-17T12:21:28;96303.03;;;13.01;79.73
43878;BME280;29815;48.184;11.268;2023-02-17T12:24:22;96285.44;;;12.98;79.76
43878;BME280;29815;48.184;11.268;2023-02-17T12:27:22;96288.94;;;12.94;79.48
43878;BME280;29815;48.184;11.268;2023-02-17T12:30:13;96288.41;;;12.97;80.39
43878;BME280;29815;48.184;11.268;2023-02-17T12:33:40;96297.34;;;12.97;86.63
43878;BME280;29815;48.184;11.268;2023-02-17T12:36:17;96303.25;;;12.89;84.82
43878;BME280;29815;48.184;11.268;2023-02-17T12:38:52;96292.22;;;13.06;87.22
43878;BME280;29815;48.184;11.268;2023-02-17T12:41:27;96296.81;;;13.00;82.95
43878;BME280;29815;48.184;11.268;2023-02-17T12:44:05;96296.78;;;12.90;83.91
43878;BME280;29815;48.184;11.268;2023-02-17T12:46:42;96285.97;;;12.85;84.43
43878;BME280;29815;48.184;11.268;2023-02-17T12:49:17;96294.59;;;12.82;84.46
43878;BME280;29815;48.184;11.268;2023-02-17T12:51:53;96291.31;;;12.70;85.63
43878;BME280;29815;48.184;11.268;2023-02-17T12:54:30;96297.25;;;12.72;87.56
43878;BME280;29815;48.184;11.268;2023-02-17T12:57:12;96292.38;;;12.69;89.11
43878;BME280;29815;48.184;11.268;2023-02-17T12:59:44;96294.81;;;12.70;89.96
43878;BME280;29815;48.184;11.268;2023-02-17T13:02:17;96296.97;;;12.68;90.30
43878;BME280;29815;48.184;11.268;2023-02-17T13:04:51;96288.91;;;12.78;92.38
43878;BME280;29815;48.184;11.268;2023-02-17T13:07:42;96279.72;;;12.74;90.06
43878;BME280;29815;48.184;11.268;2023-02-17T13:10:30;96270.56;;;12.80;90.96
43878;BME280;29815;48.184;11.268;2023-02-17T13:13:08;96287.03;;;12.79;90.60
43878;BME280;29815;48.184;11.268;2023-02-17T13:15:41;96289.44;;;12.75;90.69
43878;BME280;29815;48.184;11.268;2023-02-17T13:18:13;96292.09;;;12.65;93.66
43878;BME280;29815;48.184;11.268;2023-02-17T13:20:59;96296.69;;;12.65;91.36
43878;BME280;29815;48.184;11.268;2023-02-17T13:23:38;96290.19;;;12.56;90.73
43878;BME280;29815;48.184;11.268;2023-02-17T13:29:20;96280.44;;;12.49;92.78
43878;BME280;29815;48.184;11.268;2023-02-17T13:32:04;96291.75;;;12.46;90.93
43878;BME280;29815;48.184;11.268;2023-02-17T13:34:38;96301.69;;;12.36;89.64
43878;BME280;29815;48.184;11.268;2023-02-17T13:37:23;96285.50;;;12.36;91.11
43878;BME280;29815;48.184;11.268;2023-02-17T13:39:55;96272.00;;;12.36;88.41
43878;BME280;29815;48.184;11.268;2023-02-17T13:42:37;96292.25;;;12.38;88.62
43878;BME280;29815;48.184;11.268;2023-02-17T13:45:20;96277.13;;;12.37;91.93
43878;BME280;29815;48.184;11.268;2023-02-17T13:47:54;96283.59;;;12.36;91.65
43878;BME280;29815;48.184;11.268;2023-02-17T13:50:31;96285.25;;;12.37;89.76
43878;BME280;29815;48.184;11.268;2023-02-17T13:53:21;96281.44;;;12.33;89.76
43878;BME280;29815;48.184;11.268;2023-02-17T13:55:58;96295.47;;;12.35;89.80
43878;BME280;29815;48.184;11.268;2023-02-17T13:58:31;96299.25;;;12.34;91.07
43878;BME280;29815;48.184;11.268;2023-02-17T14:01:06;96317.09;;;12.40;91.81
43878;BME280;29815;48.184;11.268;2023-02-17T14:03:44;96289.81;;;12.37;94.03
43878;BME280;29815;48.184;11.268;2023-02-17T14:06:23;96304.66;;;12.29;94.28
43878;BME280;29815;48.184;11.268;2023-02-17T14:08:56;96303.31;;;12.37;95.22
43878;BME280;29815;48.184;11.268;2023-02-17T14:11:27;96291.69;;;12.31;96.22
43878;BME280;29815;48.184;11.268;2023-02-17T14:14:00;96305.72;;;12.33;96.42
43878;BME280;29815;48.184;11.268;2023-02-17T14:16:34;96304.09;;;12.32;97.86
43878;BME280;29815;48.184;11.268;2023-02-17T14:19:07;96316.78;;;12.32;98.60
43878;BME280;29815;48.184;11.268;2023-02-17T14:21:44;96306.81;;;12.27;97.99
43878;BME280;29815;48.184;11.268;2023-02-17T14:24:57;96311.31;;;12.16;98.24
43878;BME280;29815;48.184;11.268;2023-02-17T14:27:28;96306.44;;;12.13;98.30
43878;BME280;29815;48.184;11.268;2023-02-17T14:30:14;96307.25;;;12.14;100.00
43878;BME280;29815;48.184;11.268;2023-02-17T14:33:06;96308.81;;;12.05;100.00
43878;BME280;29815;48.184;11.268;2023-02-17T14:35:36;96312.09;;;12.12;100.00
43878;BME280;29815;48.184;11.268;2023-02-17T14:38:15;96304.81;;;12.12;97.89
43878;BME280;29815;48.184;11.268;2023-02-17T14:40:48;96323.69;;;12.12;100.00
43878;BME280;29815;48.184;11.268;2023-02-17T14:43:21;96297.50;;;12.08;98.53
43878;BME280;29815;48.184;11.268;2023-02-17T14:45:51;96287.25;;;12.10;99.09
43878;BME280;29815;48.184;11.268;2023-02-17T14:48:22;96300.44;;;12.06;98.34
43878;BME280;29815;48.184;11.268;2023-02-17T14:50:55;96310.69;;;11.99;97.55
43878;BME280;29815;48.184;11.268;2023-02-17T14:53:28;96309.34;;;12.07;96.99
43878;BME280;29815;48.184;11.268;2023-02-17T14:56:02;96317.19;;;12.08;96.42
43878;BME280;29815;48.184;11.268;2023-02-17T14:58:36;96313.94;;;12.06;96.49
43878;BME280;29815;48.184;11.268;2023-02-17T15:01:06;96308.53;;;12.06;99.05
43878;BME280;29815;48.184;11.268;2023-02-17T15:03:39;96311.75;;;11.98;96.83
43878;BME280;29815;48.184;11.268;2023-02-17T15:06:13;96312.53;;;11.94;97.32
43878;BME280;29815;48.184;11.268;2023-02-17T15:08:46;96317.97;;;11.99;97.90
43878;BME280;29815;48.184;11.268;2023-02-17T15:11:44;96305.50;;;11.93;98.57
43878;BME280;29815;48.184;11.268;2023-02-17T15:14:18;96308.19;;;11.93;98.85
43878;BME280;29815;48.184;11.268;2023-02-17T15:16:48;96307.94;;;11.94;98.60
43878;BME280;29815;48.184;11.268;2023-02-17T15:19:19;96311.97;;;11.92;97.59
43878;BME280;29815;48.184;11.268;2023-02-17T15:21:50;96306.31;;;11.93;99.16
43878;BME280;29815;48.184;11.268;2023-02-17T15:24:24;96300.41;;;11.96;98.32
43878;BME280;29815;48.184;11.268;2023-02-17T15:26:59;96297.97;;;11.95;99.34
43878;BME280;29815;48.184;11.268;2023-02-17T15:29:29;96293.88;;;11.87;100.00
43878;BME280;29815;48.184;11.268;2023-02-17T15:32:01;96294.13;;;11.85;100.00
43878;BME280;29815;48.184;11.268;2023-02-17T15:34:34;96307.59;;;11.85;100.00
43878;BME280;29815;48.184;11.268;2023-02-17T15:37:04;96283.56;;;11.79;100.00
43878;BME280;29815;48.184;11.268;2023-02-17T15:39:33;96288.44;;;11.82;100.00
43878;BME280;29815;48.184;11.268;2023-02-17T15:42:09;96290.31;;;11.81;100.00
43878;BME280;29815;48.184;11.268;2023-02-17T15:44:43;96276.53;;;11.78;100.00
43878;BME280;29815;48.184;11.268;2023-02-17T15:47:16;96278.63;;;11.71;100.00
43878;BME280;29815;48.184;11.268;2023-02-17T15:49:48;96271.00;;;11.63;100.00
43878;BME280;29815;48.184;11.268;2023-02-17T15:52:18;96274.22;;;11.60;100.00
43878;BME280;29815;48.184;11.268;2023-02-17T15:54:47;96268.22;;;11.52;100.00
43878;BME280;29815;48.184;11.268;2023-02-17T15:57:21;96278.75;;;11.54;100.00
43878;BME280;29815;48.184;11.268;2023-02-17T15:59:52;96265.28;;;11.54;100.00
43878;BME280;29815;48.184;11.268;2023-02-17T16:02:23;96272.03;;;11.57;100.00
43878;BME280;29815;48.184;11.268;2023-02-17T16:04:55;96272.78;;;11.47;100.00
43878;BME280;29815;48.184;11.268;2023-02-17T16:07:24;96274.44;;;11.53;100.00
43878;BME280;29815;48.184;11.268;2023-02-17T16:09:54;96272.28;;;11.55;100.00
43878;BME280;29815;48.184;11.268;2023-02-17T16:12:23;96275.75;;;11.50;100.00
43878;BME280;29815;48.184;11.268;2023-02-17T16:14:56;96277.13;;;11.53;100.00
43878;BME280;29815;48.184;11.268;2023-02-17T16:17:26;96297.31;;;11.50;100.00
43878;BME280;29815;48.184;11.268;2023-02-17T16:19:57;96277.63;;;11.50;100.00
43878;BME280;29815;48.184;11.268;2023-02-17T16:22:26;96270.38;;;11.50;100.00
43878;BME280;29815;48.184;11.268;2023-02-17T16:24:57;96278.44;;;11.45;100.00
43878;BME280;29815;48.184;11.268;2023-02-17T16:27:26;96280.84;;;11.42;100.00
43878;BME280;29815;48.184;11.268;2023-02-17T16:29:56;96276.97;;;11.33;100.00
43878;BME280;29815;48.184;11.268;2023-02-17T16:32:25;96291.72;;;11.25;100.00
43878;BME280;29815;48.184;11.268;2023-02-17T16:34:56;96292.22;;;11.22;100.00
43878;BME280;29815;48.184;11.268;2023-02-17T16:37:26;96288.22;;;11.25;100.00
43878;BME280;29815;48.184;11.268;2023-02-17T16:39:55;96277.94;;;11.22;100.00
43878;BME280;29815;48.184;11.268;2023-02-17T16:42:25;96288.38;;;11.13;100.00
43878;BME280;29815;48.184;11.268;2023-02-17T16:44:55;96287.88;;;11.16;100.00
43878;BME280;29815;48.184;11.268;2023-02-17T16:47:24;96294.91;;;11.17;100.00
43878;BME280;29815;48.184;11.268;2023-02-17T16:49:54;96279.78;;;11.16;100.00
43878;BME280;29815;48.184;11.268;2023-02-17T16:52:26;96308.56;;;11.10;100.00
43878;BME280;29815;48.184;11.268;2023-02-17T16:54:59;96289.66;;;11.05;100.00
43878;BME280;29815;48.184;11.268;2023-02-17T16:57:28;96294.53;;;11.08;100.00
43878;BME280;29815;48.184;11.268;2023-02-17T16:59:58;96301.50;;;11.04;100.00
43878;BME280;29815;48.184;11.268;2023-02-17T17:02:28;96304.63;;;10.96;100.00
43878;BME280;29815;48.184;11.268;2023-02-17T17:04:57;96312.47;;;10.98;100.00
43878;BME280;29815;48.184;11.268;2023-02-17T17:07:30;96307.69;;;11.05;100.00
43878;BME280;29815;48.184;11.268;2023-02-17T17:10:00;96305.81;;;11.05;100.00
43878;BME280;29815;48.184;11.268;2023-02-17T17:12:45;96310.03;;;10.96;100.00
43878;BME280;29815;48.184;11.268;2023-02-17T17:15:15;96304.84;;;10.90;100.00
43878;BME280;29815;48.184;11.268;2023-02-17T17:17:50;96305.63;;;10.85;100.00
43878;BME280;29815;48.184;11.268;2023-02-17T17:24:57;96318.06;;;10.91;100.00
43878;BME280;29815;48.184;11.268;2023-02-17T17:27:27;96314.31;;;10.92;100.00
43878;BME280;29815;48.184;11.268;2023-02-17T17:29:56;96320.13;;;10.84;100.00
43878;BME280;29815;48.184;11.268;2023-02-17T17:32:26;96320.31;;;10.77;100.00
43878;BME280;29815;48.184;11.268;2023-02-17T17:34:55;96328.16;;;10.79;100.00
43878;BME280;29815;48.184;11.268;2023-02-17T17:37:25;96321.13;;;10.78;100.00
43878;BME280;29815;48.184;11.268;2023-02-17T17:39:54;96328.97;;;10.79;100.00
43878;BME280;29815;48.184;11.268;2023-02-17T17:42:25;96331.53;;;10.69;100.00
43878;BME280;29815;48.184;11.268;2023-02-17T17:44:54;96330.47;;;10.70;100.00
43878;BME280;29815;48.184;11.268;2023-02-17T17:47:24;96333.97;;;10.71;100.00
43878;BME280;29815;48.184;11.268;2023-02-17T17:49:57;96340.75;;;10.73;100.00
43878;BME280;29815;48.184;11.268;2023-02-17T17:52:26;96334.59;;;10.78;100.00
43878;BME280;29815;48.184;11.268;2023-02-17T17:54:56;96330.28;;;10.77;100.00
43878;BME280;29815;48.184;11.268;2023-02-17T17:57:26;96338.44;;;10.82;100.00
43878;BME280;29815;48.184;11.268;2023-02-17T17:59:56;96331.66;;;10.79;100.00
43878;BME280;29815;48.184;11.268;2023-02-17T18:02:26;96320.25;;;10.72;100.00
43878;BME280;29815;48.184;11.268;2023-02-17T18:04:55;96320.50;;;10.71;100.00
43878;BME280;29815;48.184;11.268;2023-02-17T18:07:25;96315.44;;;10.74;100.00
43878;BME280;29815;48.184;11.268;2023-02-17T18:09:55;96314.88;;;10.72;100.00
43878;BME280;29815;48.184;11.268;2023-02-17T18:12:27;96307.75;;;10.83;100.00
43878;BME280;29815;48.184;11.268;2023-02-17T18:14:56;96320.38;;;10.82;100.00
43878;BME280;29815;48.184;11.268;2023-02-17T18:17:31;96309.88;;;10.81;100.00
43878;BME280;29815;48.184;11.268;2023-02-17T18:20:02;96309.63;;;10.82;100.00
43878;BME280;29815;48.184;11.268;2023-02-17T18:22:32;96320.13;;;10.84;100.00
43878;BME280;29815;48.184;11.268;2023-02-17T18:25:02;96302.34;;;10.83;100.00
43878;BME280;29815;48.184;11.268;2023-02-17T18:27:38;96310.28;;;10.95;100.00
43878;BME280;29815;48.184;11.268;2023-02-17T18:30:11;96304.69;;;11.01;100.00
43878;BME280;29815;48.184;11.268;2023-02-17T18:32:42;96307.13;;;11.03;100.00
43878;BME280;29815;48.184;11.268;2023-02-17T18:35:13;96297.22;;;11.08;100.00
43878;BME280;29815;48.184;11.268;2023-02-17T18:37:43;96300.53;;;11.15;100.00
43878;BME280;29815;48.184;11.268;2023-02-17T18:40:16;96309.44;;;11.16;100.00
43878;BME280;29815;48.184;11.268;2023-02-17T18:42:48;96305.97;;;11.21;100.00
43878;BME280;29815;48.184;11.268;2023-02-17T18:45:18;96316.69;;;11.15;100.00
43878;BME280;29815;48.184;11.268;2023-02-17T18:47:47;96324.28;;;11.18;100.00
43878;BME280;29815;48.184;11.268;2023-02-17T18:50:17;96308.06;;;11.13;100.00
43878;BME280;29815;48.184;11.268;2023-02-17T18:56:38;96301.34;;;11.16;100.00
43878;BME280;29815;48.184;11.268;2023-02-17T18:59:08;96314.06;;;11.21;100.00
43878;BME280;29815;48.184;11.268;2023-02-17T19:01:38;96298.44;;;11.23;100.00
43878;BME280;29815;48.184;11.268;2023-02-17T19:04:09;96304.34;;;11.19;100.00
43878;BME280;29815;48.184;11.268;2023-02-17T19:06:40;96309.19;;;11.23;100.00
43878;BME280;29815;48.184;11.268;2023-02-17T19:09:09;96293.84;;;11.23;100.00
43878;BME280;29815;48.184;11.268;2023-02-17T19:11:39;96297.91;;;11.26;100.00
43878;BME280;29815;48.184;11.268;2023-02-17T19:14:10;96289.75;;;11.15;100.00
43878;BME280;29815;48.184;11.268;2023-02-17T19:16:39;96307.56;;;11.16;100.00
43878;BME280;29815;48.184;11.268;2023-02-17T19:19:09;96312.88;;;11.11;100.00
43878;BME280;29815;48.184;11.268;2023-02-17T19:21:38;96299.66;;;11.10;100.00
43878;BME280;29815;48.184;11.268;2023-02-17T19:24:08;96298.34;;;11.12;100.00
43878;BME280;29815;48.184;11.268;2023-02-17T19:26:37;96308.25;;;11.07;100.00
43878;BME280;29815;48.184;11.268;2023-02-17T19:29:07;96287.81;;;11.11;100.00
43878;BME280;29815;48.184;11.268;2023-02-17T19:31:38;96300.22;;;11.12;100.00
43878;BME280;29815;48.184;11.268;2023-02-17T19:34:08;96324.47;;;11.12;100.00
43878;BME280;29815;48.184;11.268;2023-02-17T19:36:37;96315.63;;;11.16;100.00
43878;BME280;29815;48.184;11.268;2023-02-17T19:39:06;96300.28;;;11.17;100.00
43878;BME280;29815;48.184;11.268;2023-02-17T19:41:36;96299.97;;;11.13;100.00
43878;BME280;29815;48.184;11.268;2023-02-17T19:44:06;96305.63;;;11.12;100.00
43878;BME280;29815;48.184;11.268;2023-02-17T19:46:38;96319.53;;;11.04;100.00
43878;BME280;29815;48.184;11.268;2023-02-17T19:49:08;96322.03;;;11.10;100.00
43878;BME280;29815;48.184;11.268;2023-02-17T19:51:37;96311.75;;;11.07;100.00
43878;BME280;29815;48.184;11.268;2023-02-17T19:54:07;96315.88;;;11.15;100.00
43878;BME280;29815;48.184;11.268;2023-02-17T19:56:36;96325.03;;;11.14;100.00
43878;BME280;29815;48.184;11.268;2023-02-17T19:59:06;96328.53;;;11.14;100.00
43878;BME280;29815;48.184;11.268;2023-02-17T20:01:37;96322.09;;;11.15;100.00
43878;BME280;29815;48.184;11.268;2023-02-17T20:04:10;96323.47;;;11.18;100.00
43878;BME280;29815;48.184;11.268;2023-02-17T20:06:42;96350.09;;;11.14;100.00
43878;BME280;29815;48.184;11.268;2023-02-17T20:09:43;96336.31;;;11.11;100.00
43878;BME280;29815;48.184;11.268;2023-02-17T20:12:13;96337.38;;;11.10;100.00
43878;BME280;29815;48.184;11.268;2023-02-17T20:14:42;96348.91;;;11.05;100.00
43878;BME280;29815;48.184;11.268;2023-02-17T20:17:14;96340.84;;;11.05;100.00
43878;BME280;29815;48.184;11.268;2023-02-17T20:19:44;96338.59;;;10.97;100.00
43878;BME280;29815;48.184;11.268;2023-02-17T20:22:13;96340.72;;;10.95;100.00
43878;BME280;29815;48.184;11.268;2023-02-17T20:24:43;96334.78;;;10.93;100.00
43878;BME280;29815;48.184;11.268;2023-02-17T20:27:12;96342.91;;;10.98;100.00
43878;BME280;29815;48.184;11.268;2023-02-17T20:29:42;96349.31;;;10.92;100.00
43878;BME280;29815;48.184;11.268;2023-02-17T20:32:11;96360.63;;;10.94;100.00
43878;BME280;29815;48.184;11.268;2023-02-17T20:34:42;96374.38;;;10.93;100.00
43878;BME280;29815;48.184;11.268;2023-02-17T20:37:12;96382.38;;;10.88;100.00
43878;BME280;29815;48.184;11.268;2023-02-17T20:39:41;96389.34;;;10.83;100.00
43878;BME280;29815;48.184;11.268;2023-02-17T20:42:11;96397.41;;;10.83;100.00
43878;BME280;29815;48.184;11.268;2023-02-17T20:44:41;96406.63;;;10.88;100.00
43878;BME280;29815;48.184;11.268;2023-02-17T20:47:11;96401.41;;;10.81;100.00
43878;BME280;29815;48.184;11.268;2023-02-17T20:49:42;96401.66;;;10.79;100.00
43878;BME280;29815;48.184;11.268;2023-02-17T20:52:12;96404.53;;;10.73;100.00
43878;BME280;29815;48.184;11.268;2023-02-17T20:54:41;96411.56;;;10.74;100.00
43878;BME280;29815;48.184;11.268;2023-02-17T20:57:13;96408.94;;;10.79;100.00